Salina, KS

2:52 PM CST on February 28, 2015 (GMT -0600)
Salina Municipal | Change Station
CLOSE
Current Station
Airport
Location: Salina,
Elevation: 1286 ft
Nearby Weather Stations
Active Advisory: Winter Weather Advisory

Elev 1286 ft 38.80 °N, 97.65 °W | Updated 59 minutes ago

Snow
Snow
22 °F
Feels Like 13 °F
N
7
Wind Variable Wind from South

Today
High -- | Low -- °F
--% Chance of Precip.
Yesterday
High -- | Low -- °F
Precip. -- in
7:04 AM 6:22 PM
Waxing Gibbous, 80% visible
Pressure 30.43 in
Visibility 7.0 miles
Clouds Few 1500 ft
Few 5000 ft
Overcast 8000 ft
Windchill 13 °F
Dew Point 15 °F
Humidity 75%
Rainfall 0.00 in
Snow Depth Not available.
UV 2 out of 12
Pollen .50 out of 12
Air Quality Not available.
Flu Activity Not available.
METAR KSLN 281953Z 18006KT 7SM FEW015 FEW050 OVC080 M06/M09 A3036 RMK AO2 SNE52 SLP304 P0000 T10561094

More Conditions Fewer Conditions

Pressure 30.43 in
Visibility 7.0 miles
Clouds Few 1500 ft
Few 5000 ft
Overcast 8000 ft
Windchill 13 °F
Dew Point 15 °F
Humidity 75%
Rainfall 0.00 in
Snow Depth Not available.
UV 2 out of 12
Pollen .50 out of 12
Air Quality Not available.
Flu Activity Not available.
METAR KSLN 281953Z 18006KT 7SM FEW015 FEW050 OVC080 M06/M09 A3036 RMK AO2 SNE52 SLP304 P0000 T10561094

More Conditions Fewer Conditions

10-Day Weather Forecast

Almanac

Astronomy

Feb. 28, 2015 Rise Set
Actual Time
Civil Twilight
Nautical Twilight
Astronomical Twilight
Moon
Length of Visible Light
Length of Day
Tomorrow will be .
, % of the Moon is Illuminated

Today's Extremes

State Highs State Lows

Community

WunderPhotos

Upload Photos

1,801,145 photos uploaded!

WunderBlogs® & News

Nearby

Air Quality

  Air Quality AQ Index Pollutant
Not available.

Snow Depth

Station Depth Elevation

Earthquake Activity

City Distance Mag. Time & Date
Minimum magnitude displayed is 2.5.

Coastal Water Temperatures

Place Temperature

Nearby Weather Stations

Winter Weather Advisory
Statement as of 10:31 AM CST on February 28, 2015

... Winter Weather Advisory remains in effect until noon CST
Sunday...

* timing... from today through midday Sunday.

* Snow accumulations... of 2 to 6 inches are expected by midday
Sunday. Much of the snow is expected to fall during the day
today with 1 to 2 inches in central Kansas... 2 to 4 over south
central Kansas and 4 to 6 inches over southeast Kansas. The
highest amounts will be along the Oklahoma border and over
southeast Kansas. Additional snowfall will be possible overnight
through midday Sunday across the area. Another 1 to 2 inches
will be possible across some areas.

* Main impacts... widespread accumulating snowfall will result in
reduced visibilities of 1/2 mile to 1 mile at times... along
with snowcovered and slick roads.

Precautionary/preparedness actions...

A Winter Weather Advisory means that periods of winter weather
will cause travel difficulties. Be prepared for slippery roads
and limited visibilities. Use caution while driving.



Billings Wright